sensor_id;sensor_type;location;lat;lon;timestamp;P1;durP1;ratioP1;P2;durP2;ratioP2
32347;SDS011;18821;44.800;10.326;2022-12-29T00:02:12;139.75;;;56.10;;
32347;SDS011;18821;44.800;10.326;2022-12-29T00:04:39;137.82;;;54.78;;
32347;SDS011;18821;44.800;10.326;2022-12-29T00:07:05;144.23;;;58.45;;
32347;SDS011;18821;44.800;10.326;2022-12-29T00:09:32;144.50;;;57.78;;
32347;SDS011;18821;44.800;10.326;2022-12-29T00:11:58;157.88;;;59.42;;
32347;SDS011;18821;44.800;10.326;2022-12-29T00:14:26;151.05;;;56.60;;
32347;SDS011;18821;44.800;10.326;2022-12-29T00:19:36;143.13;;;54.13;;
32347;SDS011;18821;44.800;10.326;2022-12-29T00:22:21;160.73;;;58.47;;
32347;SDS011;18821;44.800;10.326;2022-12-29T00:25:07;180.05;;;61.40;;
32347;SDS011;18821;44.800;10.326;2022-12-29T00:27:53;175.38;;;60.30;;
32347;SDS011;18821;44.800;10.326;2022-12-29T00:30:38;163.88;;;60.85;;
32347;SDS011;18821;44.800;10.326;2022-12-29T00:33:25;175.55;;;62.80;;
32347;SDS011;18821;44.800;10.326;2022-12-29T00:38:52;173.88;;;61.45;;
32347;SDS011;18821;44.800;10.326;2022-12-29T00:41:40;178.05;;;62.70;;
32347;SDS011;18821;44.800;10.326;2022-12-29T00:44:26;182.30;;;65.30;;
32347;SDS011;18821;44.800;10.326;2022-12-29T00:46:53;176.88;;;63.30;;
32347;SDS011;18821;44.800;10.326;2022-12-29T00:49:19;177.63;;;65.88;;
32347;SDS011;18821;44.800;10.326;2022-12-29T00:54:31;181.80;;;68.57;;
32347;SDS011;18821;44.800;10.326;2022-12-29T00:56:59;182.82;;;67.03;;
32347;SDS011;18821;44.800;10.326;2022-12-29T00:59:25;175.98;;;67.78;;
32347;SDS011;18821;44.800;10.326;2022-12-29T01:01:51;183.63;;;67.00;;
32347;SDS011;18821;44.800;10.326;2022-12-29T01:04:20;181.00;;;66.20;;
32347;SDS011;18821;44.800;10.326;2022-12-29T01:06:47;172.65;;;65.55;;
32347;SDS011;18821;44.800;10.326;2022-12-29T01:09:15;172.25;;;64.78;;
32347;SDS011;18821;44.800;10.326;2022-12-29T01:12:00;174.05;;;64.20;;
32347;SDS011;18821;44.800;10.326;2022-12-29T01:14:26;166.45;;;63.78;;
32347;SDS011;18821;44.800;10.326;2022-12-29T01:16:52;167.88;;;62.45;;
32347;SDS011;18821;44.800;10.326;2022-12-29T01:19:19;172.27;;;63.10;;
32347;SDS011;18821;44.800;10.326;2022-12-29T01:21:45;167.07;;;64.00;;
32347;SDS011;18821;44.800;10.326;2022-12-29T01:24:12;164.85;;;62.30;;
32347;SDS011;18821;44.800;10.326;2022-12-29T01:26:39;178.93;;;62.70;;
32347;SDS011;18821;44.800;10.326;2022-12-29T01:29:05;182.55;;;64.78;;
32347;SDS011;18821;44.800;10.326;2022-12-29T01:31:31;191.65;;;66.28;;
32347;SDS011;18821;44.800;10.326;2022-12-29T01:33:57;176.60;;;65.63;;
32347;SDS011;18821;44.800;10.326;2022-12-29T01:36:23;189.52;;;67.18;;
32347;SDS011;18821;44.800;10.326;2022-12-29T01:38:50;184.63;;;64.10;;
32347;SDS011;18821;44.800;10.326;2022-12-29T01:41:16;178.05;;;64.22;;
32347;SDS011;18821;44.800;10.326;2022-12-29T01:46:44;177.07;;;64.90;;
32347;SDS011;18821;44.800;10.326;2022-12-29T01:49:15;168.75;;;64.30;;
32347;SDS011;18821;44.800;10.326;2022-12-29T01:51:52;168.75;;;62.10;;
32347;SDS011;18821;44.800;10.326;2022-12-29T01:56:50;179.63;;;66.28;;
32347;SDS011;18821;44.800;10.326;2022-12-29T01:59:18;169.25;;;64.13;;
32347;SDS011;18821;44.800;10.326;2022-12-29T02:01:48;167.32;;;63.53;;
32347;SDS011;18821;44.800;10.326;2022-12-29T02:04:14;159.30;;;64.63;;
32347;SDS011;18821;44.800;10.326;2022-12-29T02:06:54;166.18;;;62.33;;
32347;SDS011;18821;44.800;10.326;2022-12-29T02:09:24;149.80;;;57.70;;
32347;SDS011;18821;44.800;10.326;2022-12-29T02:11:51;150.93;;;59.42;;
32347;SDS011;18821;44.800;10.326;2022-12-29T02:14:18;159.18;;;62.67;;
32347;SDS011;18821;44.800;10.326;2022-12-29T02:20:05;159.30;;;61.00;;
32347;SDS011;18821;44.800;10.326;2022-12-29T02:31:46;175.83;;;66.93;;
32347;SDS011;18821;44.800;10.326;2022-12-29T02:42:14;164.48;;;62.85;;
32347;SDS011;18821;44.800;10.326;2022-12-29T02:44:55;176.00;;;65.28;;
32347;SDS011;18821;44.800;10.326;2022-12-29T02:50:08;168.65;;;64.95;;
32347;SDS011;18821;44.800;10.326;2022-12-29T02:56:22;163.55;;;63.65;;
32347;SDS011;18821;44.800;10.326;2022-12-29T02:58:48;166.68;;;63.22;;
32347;SDS011;18821;44.800;10.326;2022-12-29T03:01:23;166.00;;;63.67;;
32347;SDS011;18821;44.800;10.326;2022-12-29T03:09:27;160.05;;;59.50;;
32347;SDS011;18821;44.800;10.326;2022-12-29T03:18:15;157.18;;;61.13;;
32347;SDS011;18821;44.800;10.326;2022-12-29T03:20:47;164.52;;;62.67;;
32347;SDS011;18821;44.800;10.326;2022-12-29T03:23:24;162.63;;;60.95;;
32347;SDS011;18821;44.800;10.326;2022-12-29T03:25:54;157.27;;;60.13;;
32347;SDS011;18821;44.800;10.326;2022-12-29T03:28:23;192.27;;;67.10;;
32347;SDS011;18821;44.800;10.326;2022-12-29T03:30:56;177.95;;;64.68;;
32347;SDS011;18821;44.800;10.326;2022-12-29T03:33:26;178.60;;;65.72;;
32347;SDS011;18821;44.800;10.326;2022-12-29T03:35:57;182.13;;;67.50;;
32347;SDS011;18821;44.800;10.326;2022-12-29T03:41:07;188.95;;;67.38;;
32347;SDS011;18821;44.800;10.326;2022-12-29T03:43:36;198.05;;;66.90;;
32347;SDS011;18821;44.800;10.326;2022-12-29T03:46:03;196.65;;;68.85;;
32347;SDS011;18821;44.800;10.326;2022-12-29T03:48:28;180.50;;;66.00;;
32347;SDS011;18821;44.800;10.326;2022-12-29T03:50:55;199.77;;;66.30;;
32347;SDS011;18821;44.800;10.326;2022-12-29T03:53:22;191.52;;;70.38;;
32347;SDS011;18821;44.800;10.326;2022-12-29T03:55:48;186.57;;;67.53;;
32347;SDS011;18821;44.800;10.326;2022-12-29T03:58:14;185.10;;;67.20;;
32347;SDS011;18821;44.800;10.326;2022-12-29T04:01:12;196.32;;;64.93;;
32347;SDS011;18821;44.800;10.326;2022-12-29T04:03:38;179.05;;;65.57;;
32347;SDS011;18821;44.800;10.326;2022-12-29T04:06:04;165.43;;;61.35;;
32347;SDS011;18821;44.800;10.326;2022-12-29T04:08:38;184.65;;;63.92;;
32347;SDS011;18821;44.800;10.326;2022-12-29T04:11:05;184.98;;;65.93;;
32347;SDS011;18821;44.800;10.326;2022-12-29T04:13:31;192.85;;;63.65;;
32347;SDS011;18821;44.800;10.326;2022-12-29T04:15:57;189.75;;;65.05;;
32347;SDS011;18821;44.800;10.326;2022-12-29T04:18:23;188.70;;;65.80;;
32347;SDS011;18821;44.800;10.326;2022-12-29T04:20:49;185.00;;;67.00;;
32347;SDS011;18821;44.800;10.326;2022-12-29T04:23:34;195.05;;;68.43;;
32347;SDS011;18821;44.800;10.326;2022-12-29T04:26:05;186.20;;;64.82;;
32347;SDS011;18821;44.800;10.326;2022-12-29T04:28:35;186.85;;;65.95;;
32347;SDS011;18821;44.800;10.326;2022-12-29T04:31:20;181.15;;;65.07;;
32347;SDS011;18821;44.800;10.326;2022-12-29T04:33:48;182.93;;;63.20;;
32347;SDS011;18821;44.800;10.326;2022-12-29T04:36:14;185.98;;;64.68;;
32347;SDS011;18821;44.800;10.326;2022-12-29T04:38:42;194.55;;;67.60;;
32347;SDS011;18821;44.800;10.326;2022-12-29T04:41:08;201.63;;;68.53;;
32347;SDS011;18821;44.800;10.326;2022-12-29T04:43:37;196.45;;;65.43;;
32347;SDS011;18821;44.800;10.326;2022-12-29T04:46:21;191.60;;;66.57;;
32347;SDS011;18821;44.800;10.326;2022-12-29T04:49:06;195.57;;;65.75;;
32347;SDS011;18821;44.800;10.326;2022-12-29T04:51:52;197.82;;;65.97;;
32347;SDS011;18821;44.800;10.326;2022-12-29T04:54:19;197.55;;;66.20;;
32347;SDS011;18821;44.800;10.326;2022-12-29T04:56:52;187.68;;;63.60;;
32347;SDS011;18821;44.800;10.326;2022-12-29T04:59:18;185.63;;;64.38;;
32347;SDS011;18821;44.800;10.326;2022-12-29T05:01:47;190.20;;;64.55;;
32347;SDS011;18821;44.800;10.326;2022-12-29T05:04:14;186.80;;;66.57;;
32347;SDS011;18821;44.800;10.326;2022-12-29T05:06:41;189.10;;;64.65;;
32347;SDS011;18821;44.800;10.326;2022-12-29T05:09:08;187.35;;;63.63;;
32347;SDS011;18821;44.800;10.326;2022-12-29T05:11:34;200.48;;;65.47;;
32347;SDS011;18821;44.800;10.326;2022-12-29T05:14:01;183.02;;;62.10;;
32347;SDS011;18821;44.800;10.326;2022-12-29T05:16:26;165.90;;;61.92;;
32347;SDS011;18821;44.800;10.326;2022-12-29T05:18:52;185.60;;;64.65;;
32347;SDS011;18821;44.800;10.326;2022-12-29T05:21:19;163.00;;;57.55;;
32347;SDS011;18821;44.800;10.326;2022-12-29T05:23:44;191.13;;;63.25;;
32347;SDS011;18821;44.800;10.326;2022-12-29T05:26:11;174.57;;;61.40;;
32347;SDS011;18821;44.800;10.326;2022-12-29T05:28:59;185.50;;;63.80;;
32347;SDS011;18821;44.800;10.326;2022-12-29T05:31:26;174.88;;;59.17;;
32347;SDS011;18821;44.800;10.326;2022-12-29T05:33:52;187.07;;;61.90;;
32347;SDS011;18821;44.800;10.326;2022-12-29T05:36:18;170.60;;;58.30;;
32347;SDS011;18821;44.800;10.326;2022-12-29T05:38:49;182.30;;;61.47;;
32347;SDS011;18821;44.800;10.326;2022-12-29T05:41:16;178.95;;;63.80;;
32347;SDS011;18821;44.800;10.326;2022-12-29T05:44:02;195.57;;;63.83;;
32347;SDS011;18821;44.800;10.326;2022-12-29T05:46:32;186.85;;;59.85;;
32347;SDS011;18821;44.800;10.326;2022-12-29T05:49:17;195.95;;;63.13;;
32347;SDS011;18821;44.800;10.326;2022-12-29T05:51:56;177.45;;;61.30;;
32347;SDS011;18821;44.800;10.326;2022-12-29T05:54:22;182.63;;;62.22;;
32347;SDS011;18821;44.800;10.326;2022-12-29T05:56:49;194.30;;;65.32;;
32347;SDS011;18821;44.800;10.326;2022-12-29T05:59:15;194.40;;;62.25;;
32347;SDS011;18821;44.800;10.326;2022-12-29T06:01:41;184.18;;;61.83;;
32347;SDS011;18821;44.800;10.326;2022-12-29T06:04:07;191.88;;;61.65;;
32347;SDS011;18821;44.800;10.326;2022-12-29T06:06:34;194.25;;;64.40;;
32347;SDS011;18821;44.800;10.326;2022-12-29T06:08:59;187.88;;;61.33;;
32347;SDS011;18821;44.800;10.326;2022-12-29T06:11:26;195.20;;;65.00;;
32347;SDS011;18821;44.800;10.326;2022-12-29T06:13:55;197.25;;;64.20;;
32347;SDS011;18821;44.800;10.326;2022-12-29T06:16:22;219.23;;;66.55;;
32347;SDS011;18821;44.800;10.326;2022-12-29T06:18:51;196.82;;;64.63;;
32347;SDS011;18821;44.800;10.326;2022-12-29T06:21:17;195.57;;;66.15;;
32347;SDS011;18821;44.800;10.326;2022-12-29T06:23:44;198.93;;;62.03;;
32347;SDS011;18821;44.800;10.326;2022-12-29T06:26:10;196.93;;;65.63;;
32347;SDS011;18821;44.800;10.326;2022-12-29T06:28:37;186.07;;;62.33;;
32347;SDS011;18821;44.800;10.326;2022-12-29T06:31:03;203.70;;;63.45;;
32347;SDS011;18821;44.800;10.326;2022-12-29T06:33:29;203.48;;;65.68;;
32347;SDS011;18821;44.800;10.326;2022-12-29T06:35:55;186.82;;;63.92;;
32347;SDS011;18821;44.800;10.326;2022-12-29T06:38:21;199.25;;;67.22;;
32347;SDS011;18821;44.800;10.326;2022-12-29T06:40:47;198.93;;;65.47;;
32347;SDS011;18821;44.800;10.326;2022-12-29T06:43:19;193.35;;;65.07;;
32347;SDS011;18821;44.800;10.326;2022-12-29T06:45:54;187.77;;;65.88;;
32347;SDS011;18821;44.800;10.326;2022-12-29T06:48:20;197.00;;;64.90;;
32347;SDS011;18821;44.800;10.326;2022-12-29T06:50:46;195.20;;;66.45;;
32347;SDS011;18821;44.800;10.326;2022-12-29T06:53:12;202.38;;;66.68;;
32347;SDS011;18821;44.800;10.326;2022-12-29T06:55:39;190.30;;;64.03;;
32347;SDS011;18821;44.800;10.326;2022-12-29T06:58:06;211.88;;;65.88;;
32347;SDS011;18821;44.800;10.326;2022-12-29T07:00:32;204.75;;;65.72;;
32347;SDS011;18821;44.800;10.326;2022-12-29T07:02:58;204.40;;;65.88;;
32347;SDS011;18821;44.800;10.326;2022-12-29T07:05:24;206.10;;;66.50;;
32347;SDS011;18821;44.800;10.326;2022-12-29T07:07:53;201.23;;;68.97;;
32347;SDS011;18821;44.800;10.326;2022-12-29T07:10:20;210.52;;;66.57;;
32347;SDS011;18821;44.800;10.326;2022-12-29T07:12:47;202.60;;;66.70;;
32347;SDS011;18821;44.800;10.326;2022-12-29T07:15:12;201.85;;;64.18;;
32347;SDS011;18821;44.800;10.326;2022-12-29T07:17:40;194.77;;;66.07;;
32347;SDS011;18821;44.800;10.326;2022-12-29T07:20:06;193.73;;;65.45;;
32347;SDS011;18821;44.800;10.326;2022-12-29T07:22:32;191.18;;;63.13;;
32347;SDS011;18821;44.800;10.326;2022-12-29T07:24:58;193.93;;;65.00;;
32347;SDS011;18821;44.800;10.326;2022-12-29T07:27:24;190.93;;;63.17;;
32347;SDS011;18821;44.800;10.326;2022-12-29T07:29:50;181.40;;;62.50;;
32347;SDS011;18821;44.800;10.326;2022-12-29T07:32:16;178.85;;;59.70;;
32347;SDS011;18821;44.800;10.326;2022-12-29T07:34:42;184.60;;;64.38;;
32347;SDS011;18821;44.800;10.326;2022-12-29T07:37:10;178.32;;;61.08;;
32347;SDS011;18821;44.800;10.326;2022-12-29T07:39:36;179.38;;;60.55;;
32347;SDS011;18821;44.800;10.326;2022-12-29T07:42:02;175.82;;;60.42;;
32347;SDS011;18821;44.800;10.326;2022-12-29T07:44:35;177.55;;;59.40;;
32347;SDS011;18821;44.800;10.326;2022-12-29T07:47:15;167.88;;;60.08;;
32347;SDS011;18821;44.800;10.326;2022-12-29T07:49:41;171.13;;;60.63;;
32347;SDS011;18821;44.800;10.326;2022-12-29T07:52:06;149.73;;;57.55;;
32347;SDS011;18821;44.800;10.326;2022-12-29T07:54:32;163.27;;;59.92;;
32347;SDS011;18821;44.800;10.326;2022-12-29T07:56:58;167.40;;;60.08;;
32347;SDS011;18821;44.800;10.326;2022-12-29T07:59:25;150.77;;;56.25;;
32347;SDS011;18821;44.800;10.326;2022-12-29T08:01:53;153.30;;;56.55;;
32347;SDS011;18821;44.800;10.326;2022-12-29T08:04:19;167.27;;;59.08;;
32347;SDS011;18821;44.800;10.326;2022-12-29T08:06:45;151.82;;;57.30;;
32347;SDS011;18821;44.800;10.326;2022-12-29T08:09:11;155.77;;;57.28;;
32347;SDS011;18821;44.800;10.326;2022-12-29T08:11:36;157.20;;;57.42;;
32347;SDS011;18821;44.800;10.326;2022-12-29T08:14:03;148.55;;;55.35;;
32347;SDS011;18821;44.800;10.326;2022-12-29T08:16:30;161.52;;;57.60;;
32347;SDS011;18821;44.800;10.326;2022-12-29T08:18:56;167.82;;;58.10;;
32347;SDS011;18821;44.800;10.326;2022-12-29T08:21:22;151.82;;;55.40;;
32347;SDS011;18821;44.800;10.326;2022-12-29T08:23:49;171.35;;;59.88;;
32347;SDS011;18821;44.800;10.326;2022-12-29T08:26:16;172.68;;;59.47;;
32347;SDS011;18821;44.800;10.326;2022-12-29T08:28:43;164.32;;;58.83;;
32347;SDS011;18821;44.800;10.326;2022-12-29T08:31:09;172.93;;;60.20;;
32347;SDS011;18821;44.800;10.326;2022-12-29T08:33:35;162.65;;;57.10;;
32347;SDS011;18821;44.800;10.326;2022-12-29T08:36:02;169.95;;;59.72;;
32347;SDS011;18821;44.800;10.326;2022-12-29T08:38:29;174.25;;;61.47;;
32347;SDS011;18821;44.800;10.326;2022-12-29T08:40:55;174.93;;;60.20;;
32347;SDS011;18821;44.800;10.326;2022-12-29T08:43:23;169.70;;;59.28;;
32347;SDS011;18821;44.800;10.326;2022-12-29T08:45:49;172.13;;;60.45;;
32347;SDS011;18821;44.800;10.326;2022-12-29T08:48:15;180.13;;;62.40;;
32347;SDS011;18821;44.800;10.326;2022-12-29T08:50:45;175.10;;;56.85;;
32347;SDS011;18821;44.800;10.326;2022-12-29T08:53:13;178.63;;;62.08;;
32347;SDS011;18821;44.800;10.326;2022-12-29T08:55:39;179.35;;;60.78;;
32347;SDS011;18821;44.800;10.326;2022-12-29T08:58:06;174.40;;;60.15;;
32347;SDS011;18821;44.800;10.326;2022-12-29T09:00:34;169.70;;;61.00;;
32347;SDS011;18821;44.800;10.326;2022-12-29T09:03:00;165.73;;;58.65;;
32347;SDS011;18821;44.800;10.326;2022-12-29T09:05:26;179.60;;;61.25;;
32347;SDS011;18821;44.800;10.326;2022-12-29T09:07:52;154.18;;;56.50;;
32347;SDS011;18821;44.800;10.326;2022-12-29T09:10:18;168.43;;;58.83;;
32347;SDS011;18821;44.800;10.326;2022-12-29T09:12:44;163.25;;;55.65;;
32347;SDS011;18821;44.800;10.326;2022-12-29T09:15:10;159.55;;;58.15;;
32347;SDS011;18821;44.800;10.326;2022-12-29T09:17:37;160.23;;;58.95;;
32347;SDS011;18821;44.800;10.326;2022-12-29T09:20:10;167.02;;;56.92;;
32347;SDS011;18821;44.800;10.326;2022-12-29T09:22:37;159.02;;;57.70;;
32347;SDS011;18821;44.800;10.326;2022-12-29T09:25:04;168.05;;;61.60;;
32347;SDS011;18821;44.800;10.326;2022-12-29T09:27:30;165.70;;;57.58;;
32347;SDS011;18821;44.800;10.326;2022-12-29T09:29:56;185.18;;;63.38;;
32347;SDS011;18821;44.800;10.326;2022-12-29T09:32:22;180.63;;;62.20;;
32347;SDS011;18821;44.800;10.326;2022-12-29T09:34:48;169.70;;;60.30;;
32347;SDS011;18821;44.800;10.326;2022-12-29T09:37:14;157.85;;;59.28;;
32347;SDS011;18821;44.800;10.326;2022-12-29T09:39:40;157.70;;;57.33;;
32347;SDS011;18821;44.800;10.326;2022-12-29T09:45:15;167.05;;;62.90;;
32347;SDS011;18821;44.800;10.326;2022-12-29T09:47:45;161.25;;;59.97;;
32347;SDS011;18821;44.800;10.326;2022-12-29T09:50:23;163.70;;;59.90;;
32347;SDS011;18821;44.800;10.326;2022-12-29T09:55:38;157.55;;;57.72;;
32347;SDS011;18821;44.800;10.326;2022-12-29T09:58:12;161.90;;;60.10;;
32347;SDS011;18821;44.800;10.326;2022-12-29T10:01:01;169.40;;;58.67;;
32347;SDS011;18821;44.800;10.326;2022-12-29T10:03:52;165.18;;;60.90;;
32347;SDS011;18821;44.800;10.326;2022-12-29T10:06:24;158.80;;;60.63;;
32347;SDS011;18821;44.800;10.326;2022-12-29T10:09:09;168.13;;;63.40;;
32347;SDS011;18821;44.800;10.326;2022-12-29T10:14:40;163.57;;;59.75;;
32347;SDS011;18821;44.800;10.326;2022-12-29T10:22:51;159.65;;;59.08;;
32347;SDS011;18821;44.800;10.326;2022-12-29T10:25:26;177.10;;;61.35;;
32347;SDS011;18821;44.800;10.326;2022-12-29T10:27:57;168.00;;;59.53;;
32347;SDS011;18821;44.800;10.326;2022-12-29T10:30:28;169.60;;;59.97;;
32347;SDS011;18821;44.800;10.326;2022-12-29T10:33:01;164.40;;;60.15;;
32347;SDS011;18821;44.800;10.326;2022-12-29T10:35:37;152.00;;;58.88;;
32347;SDS011;18821;44.800;10.326;2022-12-29T10:41:05;170.38;;;60.55;;
32347;SDS011;18821;44.800;10.326;2022-12-29T10:46:06;161.57;;;59.85;;
32347;SDS011;18821;44.800;10.326;2022-12-29T10:48:37;156.60;;;56.15;;
32347;SDS011;18821;44.800;10.326;2022-12-29T10:51:04;160.82;;;59.92;;
32347;SDS011;18821;44.800;10.326;2022-12-29T10:53:38;175.85;;;64.05;;
32347;SDS011;18821;44.800;10.326;2022-12-29T10:56:15;179.00;;;64.18;;
32347;SDS011;18821;44.800;10.326;2022-12-29T10:58:53;167.85;;;60.67;;
32347;SDS011;18821;44.800;10.326;2022-12-29T11:01:23;165.90;;;61.80;;
32347;SDS011;18821;44.800;10.326;2022-12-29T11:04:05;180.02;;;62.53;;
32347;SDS011;18821;44.800;10.326;2022-12-29T11:06:46;174.52;;;61.80;;
32347;SDS011;18821;44.800;10.326;2022-12-29T11:09:15;182.93;;;64.30;;
32347;SDS011;18821;44.800;10.326;2022-12-29T11:11:47;179.23;;;61.50;;
32347;SDS011;18821;44.800;10.326;2022-12-29T11:16:43;183.10;;;63.15;;
32347;SDS011;18821;44.800;10.326;2022-12-29T11:19:23;183.73;;;64.03;;
32347;SDS011;18821;44.800;10.326;2022-12-29T11:21:54;177.73;;;60.65;;
32347;SDS011;18821;44.800;10.326;2022-12-29T11:24:24;179.68;;;61.58;;
32347;SDS011;18821;44.800;10.326;2022-12-29T11:26:53;170.07;;;58.92;;
32347;SDS011;18821;44.800;10.326;2022-12-29T11:29:25;179.80;;;63.20;;
32347;SDS011;18821;44.800;10.326;2022-12-29T11:32:10;183.30;;;63.47;;
32347;SDS011;18821;44.800;10.326;2022-12-29T11:34:38;176.95;;;60.88;;
32347;SDS011;18821;44.800;10.326;2022-12-29T11:37:05;173.00;;;61.03;;
32347;SDS011;18821;44.800;10.326;2022-12-29T11:42:29;197.18;;;63.70;;
32347;SDS011;18821;44.800;10.326;2022-12-29T11:45:09;184.95;;;64.70;;
32347;SDS011;18821;44.800;10.326;2022-12-29T11:47:42;181.85;;;62.83;;
32347;SDS011;18821;44.800;10.326;2022-12-29T11:50:19;185.18;;;60.72;;
32347;SDS011;18821;44.800;10.326;2022-12-29T11:52:58;175.60;;;59.10;;
32347;SDS011;18821;44.800;10.326;2022-12-29T11:55:25;188.70;;;62.08;;
32347;SDS011;18821;44.800;10.326;2022-12-29T11:57:53;169.15;;;59.90;;
32347;SDS011;18821;44.800;10.326;2022-12-29T12:00:24;180.65;;;59.67;;
32347;SDS011;18821;44.800;10.326;2022-12-29T12:10:44;185.18;;;63.88;;
32347;SDS011;18821;44.800;10.326;2022-12-29T12:13:39;178.07;;;60.97;;
32347;SDS011;18821;44.800;10.326;2022-12-29T12:16:55;170.70;;;55.88;;
32347;SDS011;18821;44.800;10.326;2022-12-29T12:19:35;156.60;;;54.58;;
32347;SDS011;18821;44.800;10.326;2022-12-29T12:25:12;180.07;;;60.00;;
32347;SDS011;18821;44.800;10.326;2022-12-29T12:30:45;166.63;;;55.50;;
32347;SDS011;18821;44.800;10.326;2022-12-29T12:33:22;172.20;;;57.40;;
32347;SDS011;18821;44.800;10.326;2022-12-29T12:41:32;160.02;;;52.00;;
32347;SDS011;18821;44.800;10.326;2022-12-29T12:53:12;170.90;;;60.55;;
32347;SDS011;18821;44.800;10.326;2022-12-29T12:58:19;133.85;;;52.17;;
32347;SDS011;18821;44.800;10.326;2022-12-29T13:06:31;151.77;;;56.45;;
32347;SDS011;18821;44.800;10.326;2022-12-29T13:14:26;159.60;;;53.72;;
32347;SDS011;18821;44.800;10.326;2022-12-29T13:17:24;143.55;;;51.53;;
32347;SDS011;18821;44.800;10.326;2022-12-29T13:22:33;155.77;;;56.13;;
32347;SDS011;18821;44.800;10.326;2022-12-29T13:33:24;168.45;;;56.85;;
32347;SDS011;18821;44.800;10.326;2022-12-29T13:36:36;162.93;;;55.30;;
32347;SDS011;18821;44.800;10.326;2022-12-29T13:41:43;171.70;;;59.73;;
32347;SDS011;18821;44.800;10.326;2022-12-29T13:44:16;178.10;;;62.58;;
32347;SDS011;18821;44.800;10.326;2022-12-29T13:46:47;168.55;;;58.08;;
32347;SDS011;18821;44.800;10.326;2022-12-29T13:49:19;181.77;;;59.58;;
32347;SDS011;18821;44.800;10.326;2022-12-29T13:51:49;172.10;;;57.90;;
32347;SDS011;18821;44.800;10.326;2022-12-29T13:54:25;178.23;;;59.25;;
32347;SDS011;18821;44.800;10.326;2022-12-29T13:57:10;168.23;;;54.65;;
32347;SDS011;18821;44.800;10.326;2022-12-29T14:02:42;170.07;;;59.17;;
32347;SDS011;18821;44.800;10.326;2022-12-29T14:07:49;159.32;;;58.22;;
32347;SDS011;18821;44.800;10.326;2022-12-29T14:12:53;159.52;;;56.05;;
32347;SDS011;18821;44.800;10.326;2022-12-29T14:15:28;153.18;;;54.92;;
32347;SDS011;18821;44.800;10.326;2022-12-29T14:18:05;150.25;;;56.25;;
32347;SDS011;18821;44.800;10.326;2022-12-29T14:28:30;141.55;;;53.55;;
32347;SDS011;18821;44.800;10.326;2022-12-29T14:31:01;135.35;;;52.20;;
32347;SDS011;18821;44.800;10.326;2022-12-29T14:33:31;133.85;;;48.15;;
32347;SDS011;18821;44.800;10.326;2022-12-29T14:38:44;127.40;;;50.47;;
32347;SDS011;18821;44.800;10.326;2022-12-29T14:41:22;143.30;;;50.95;;
32347;SDS011;18821;44.800;10.326;2022-12-29T14:43:53;132.57;;;50.72;;
32347;SDS011;18821;44.800;10.326;2022-12-29T14:46:45;159.63;;;56.58;;
32347;SDS011;18821;44.800;10.326;2022-12-29T14:49:16;166.02;;;57.83;;
32347;SDS011;18821;44.800;10.326;2022-12-29T14:51:45;152.20;;;56.33;;
32347;SDS011;18821;44.800;10.326;2022-12-29T14:56:58;143.77;;;51.53;;
32347;SDS011;18821;44.800;10.326;2022-12-29T14:59:29;147.57;;;52.40;;
32347;SDS011;18821;44.800;10.326;2022-12-29T15:01:58;145.48;;;51.20;;
32347;SDS011;18821;44.800;10.326;2022-12-29T15:04:27;148.77;;;50.58;;
32347;SDS011;18821;44.800;10.326;2022-12-29T15:06:58;134.98;;;49.88;;
32347;SDS011;18821;44.800;10.326;2022-12-29T15:09:33;139.93;;;50.88;;
32347;SDS011;18821;44.800;10.326;2022-12-29T15:12:20;141.38;;;52.40;;
32347;SDS011;18821;44.800;10.326;2022-12-29T15:15:22;144.38;;;51.22;;
32347;SDS011;18821;44.800;10.326;2022-12-29T15:17:53;148.43;;;51.10;;
32347;SDS011;18821;44.800;10.326;2022-12-29T15:20:23;146.02;;;53.17;;
32347;SDS011;18821;44.800;10.326;2022-12-29T15:22:56;144.82;;;52.95;;
32347;SDS011;18821;44.800;10.326;2022-12-29T15:25:23;138.15;;;50.83;;
32347;SDS011;18821;44.800;10.326;2022-12-29T15:27:55;138.50;;;48.53;;
32347;SDS011;18821;44.800;10.326;2022-12-29T15:30:26;138.10;;;50.05;;
32347;SDS011;18821;44.800;10.326;2022-12-29T15:32:52;137.27;;;50.03;;
32347;SDS011;18821;44.800;10.326;2022-12-29T15:35:22;138.80;;;49.88;;
32347;SDS011;18821;44.800;10.326;2022-12-29T15:37:48;137.13;;;50.60;;
32347;SDS011;18821;44.800;10.326;2022-12-29T15:40:25;147.18;;;50.05;;
32347;SDS011;18821;44.800;10.326;2022-12-29T15:45:36;147.02;;;49.88;;
32347;SDS011;18821;44.800;10.326;2022-12-29T15:48:03;159.60;;;56.97;;
32347;SDS011;18821;44.800;10.326;2022-12-29T15:50:33;161.27;;;54.92;;
32347;SDS011;18821;44.800;10.326;2022-12-29T15:53:02;130.27;;;48.90;;
32347;SDS011;18821;44.800;10.326;2022-12-29T15:55:37;140.77;;;48.93;;
32347;SDS011;18821;44.800;10.326;2022-12-29T15:58:05;141.40;;;50.25;;
32347;SDS011;18821;44.800;10.326;2022-12-29T16:00:54;151.18;;;52.38;;
32347;SDS011;18821;44.800;10.326;2022-12-29T16:03:22;133.38;;;49.35;;
32347;SDS011;18821;44.800;10.326;2022-12-29T16:05:54;132.20;;;48.65;;
32347;SDS011;18821;44.800;10.326;2022-12-29T16:08:37;139.05;;;51.47;;
32347;SDS011;18821;44.800;10.326;2022-12-29T16:11:18;142.23;;;50.83;;
32347;SDS011;18821;44.800;10.326;2022-12-29T16:13:49;142.13;;;52.70;;
32347;SDS011;18821;44.800;10.326;2022-12-29T16:16:18;140.57;;;50.35;;
32347;SDS011;18821;44.800;10.326;2022-12-29T16:18:53;153.00;;;52.58;;
32347;SDS011;18821;44.800;10.326;2022-12-29T16:21:32;151.25;;;50.88;;
32347;SDS011;18821;44.800;10.326;2022-12-29T16:24:02;145.95;;;51.42;;
32347;SDS011;18821;44.800;10.326;2022-12-29T16:26:32;139.23;;;48.92;;
32347;SDS011;18821;44.800;10.326;2022-12-29T16:28:59;139.48;;;49.75;;
32347;SDS011;18821;44.800;10.326;2022-12-29T16:31:36;147.52;;;53.20;;
32347;SDS011;18821;44.800;10.326;2022-12-29T16:36:59;128.35;;;48.03;;
32347;SDS011;18821;44.800;10.326;2022-12-29T16:39:37;141.25;;;49.75;;
32347;SDS011;18821;44.800;10.326;2022-12-29T16:47:47;149.57;;;52.22;;
32347;SDS011;18821;44.800;10.326;2022-12-29T16:50:25;145.88;;;52.90;;
32347;SDS011;18821;44.800;10.326;2022-12-29T16:52:52;150.25;;;53.25;;
32347;SDS011;18821;44.800;10.326;2022-12-29T16:55:18;146.68;;;52.88;;
32347;SDS011;18821;44.800;10.326;2022-12-29T16:57:46;143.68;;;51.83;;
32347;SDS011;18821;44.800;10.326;2022-12-29T17:00:19;148.70;;;51.75;;
32347;SDS011;18821;44.800;10.326;2022-12-29T17:02:47;154.85;;;52.08;;
32347;SDS011;18821;44.800;10.326;2022-12-29T17:05:15;149.73;;;52.78;;
32347;SDS011;18821;44.800;10.326;2022-12-29T17:07:42;164.93;;;55.22;;